Terminal Aerodrome Forecast
Issued by NWS Duluth, MN

Home | Current Version | Previous Version | Text Only | Print | Product List | Glossary On
Versions: 1 2 3 4 5 6 7 8 9 10 11 12 13 14 15 16 17 18 19 20 21
000
FTUS43 KDLH 311129
TAFDLH
TAF
KDLH 311129Z 3112/0112 28010KT P6SM SKC
     FM311500 30012G25KT P6SM SCT060
     FM010100 27007KT P6SM FEW080=

USA.gov is the U.S. government's official web portal to all federal, state and local government web resources and services.